sensor_id;sensor_type;location;lat;lon;timestamp;pressure;altitude;pressure_sealevel;temperature;humidity
74778;BME280;63298;53.164;8.610;2023-01-24T00:01:56;104208.75;;;4.20;80.47
74778;BME280;63298;53.164;8.610;2023-01-24T00:04:21;104206.00;;;4.20;79.92
74778;BME280;63298;53.164;8.610;2023-01-24T00:06:47;104201.56;;;4.19;80.56
74778;BME280;63298;53.164;8.610;2023-01-24T00:09:12;104205.03;;;4.21;80.10
74778;BME280;63298;53.164;8.610;2023-01-24T00:11:37;104201.66;;;4.17;80.07
74778;BME280;63298;53.164;8.610;2023-01-24T00:14:03;104193.47;;;4.17;80.20
74778;BME280;63298;53.164;8.610;2023-01-24T00:16:28;104195.66;;;4.12;80.57
74778;BME280;63298;53.164;8.610;2023-01-24T00:18:54;104199.16;;;4.14;80.91
74778;BME280;63298;53.164;8.610;2023-01-24T00:21:22;104195.56;;;4.14;80.80
74778;BME280;63298;53.164;8.610;2023-01-24T00:23:49;104182.66;;;4.16;80.23
74778;BME280;63298;53.164;8.610;2023-01-24T00:26:16;104183.63;;;4.15;80.38
74778;BME280;63298;53.164;8.610;2023-01-24T00:28:42;104190.75;;;4.17;80.43
74778;BME280;63298;53.164;8.610;2023-01-24T00:31:08;104182.44;;;4.19;80.42
74778;BME280;63298;53.164;8.610;2023-01-24T00:33:34;104178.50;;;4.23;80.51
74778;BME280;63298;53.164;8.610;2023-01-24T00:35:59;104182.09;;;4.23;80.01
74778;BME280;63298;53.164;8.610;2023-01-24T00:38:25;104171.03;;;4.25;80.03
74778;BME280;63298;53.164;8.610;2023-01-24T00:40:53;104175.53;;;4.26;80.10
74778;BME280;63298;53.164;8.610;2023-01-24T00:43:18;104174.28;;;4.30;79.97
74778;BME280;63298;53.164;8.610;2023-01-24T00:45:45;104168.84;;;4.30;79.85
74778;BME280;63298;53.164;8.610;2023-01-24T00:48:11;104163.38;;;4.30;80.46
74778;BME280;63298;53.164;8.610;2023-01-24T00:50:36;104166.63;;;4.35;79.98
74778;BME280;63298;53.164;8.610;2023-01-24T00:53:02;104163.91;;;4.35;79.50
74778;BME280;63298;53.164;8.610;2023-01-24T00:55:28;104166.53;;;4.37;79.59
74778;BME280;63298;53.164;8.610;2023-01-24T00:57:53;104169.25;;;4.37;79.46
74778;BME280;63298;53.164;8.610;2023-01-24T01:00:19;104163.78;;;4.37;79.57
74778;BME280;63298;53.164;8.610;2023-01-24T01:02:46;104164.78;;;4.35;79.64
74778;BME280;63298;53.164;8.610;2023-01-24T01:05:12;104164.91;;;4.34;79.70
74778;BME280;63298;53.164;8.610;2023-01-24T01:07:37;104171.13;;;4.36;79.62
74778;BME280;63298;53.164;8.610;2023-01-24T01:10:03;104163.03;;;4.34;79.87
74778;BME280;63298;53.164;8.610;2023-01-24T01:12:30;104156.91;;;4.31;79.94
74778;BME280;63298;53.164;8.610;2023-01-24T01:14:56;104153.31;;;4.30;79.39
74778;BME280;63298;53.164;8.610;2023-01-24T01:17:21;104156.91;;;4.31;79.67
74778;BME280;63298;53.164;8.610;2023-01-24T01:19:50;104158.78;;;4.30;79.28
74778;BME280;63298;53.164;8.610;2023-01-24T01:22:16;104163.38;;;4.30;79.63
74778;BME280;63298;53.164;8.610;2023-01-24T01:24:41;104165.13;;;4.31;79.39
74778;BME280;63298;53.164;8.610;2023-01-24T01:27:06;104162.50;;;4.29;79.16
74778;BME280;63298;53.164;8.610;2023-01-24T01:29:33;104158.91;;;4.29;79.26
74778;BME280;63298;53.164;8.610;2023-01-24T01:31:58;104163.38;;;4.30;79.23
74778;BME280;63298;53.164;8.610;2023-01-24T01:34:23;104161.50;;;4.30;79.54
74778;BME280;63298;53.164;8.610;2023-01-24T01:36:49;104151.56;;;4.29;78.92
74778;BME280;63298;53.164;8.610;2023-01-24T01:39:14;104150.81;;;4.27;78.43
74778;BME280;63298;53.164;8.610;2023-01-24T01:41:39;104148.97;;;4.28;79.11
74778;BME280;63298;53.164;8.610;2023-01-24T01:46:51;104144.38;;;4.28;78.79
74778;BME280;63298;53.164;8.610;2023-01-24T01:49:22;104149.69;;;4.30;78.79
74778;BME280;63298;53.164;8.610;2023-01-24T01:52:02;104144.25;;;4.30;78.49
74778;BME280;63298;53.164;8.610;2023-01-24T01:54:31;104155.16;;;4.30;78.25
74778;BME280;63298;53.164;8.610;2023-01-24T01:57:03;104153.31;;;4.30;78.25
74778;BME280;63298;53.164;8.610;2023-01-24T01:59:34;104152.56;;;4.28;78.10
74778;BME280;63298;53.164;8.610;2023-01-24T02:02:02;104149.84;;;4.28;78.25
74778;BME280;63298;53.164;8.610;2023-01-24T02:04:32;104145.25;;;4.29;78.19
74778;BME280;63298;53.164;8.610;2023-01-24T02:07:03;104139.00;;;4.27;78.04
74778;BME280;63298;53.164;8.610;2023-01-24T02:09:37;104146.22;;;4.28;78.13
74778;BME280;63298;53.164;8.610;2023-01-24T02:12:10;104146.34;;;4.26;77.74
74778;BME280;63298;53.164;8.610;2023-01-24T02:14:38;104146.97;;;4.30;78.16
74778;BME280;63298;53.164;8.610;2023-01-24T02:17:03;104146.09;;;4.29;77.66
74778;BME280;63298;53.164;8.610;2023-01-24T02:19:50;104145.34;;;4.27;77.71
74778;BME280;63298;53.164;8.610;2023-01-24T02:25:12;104151.81;;;4.26;77.91
74778;BME280;63298;53.164;8.610;2023-01-24T02:27:39;104147.22;;;4.27;77.50
74778;BME280;63298;53.164;8.610;2023-01-24T02:30:05;104142.72;;;4.26;77.98
74778;BME280;63298;53.164;8.610;2023-01-24T02:32:31;104141.84;;;4.25;77.99
74778;BME280;63298;53.164;8.610;2023-01-24T02:34:56;104146.22;;;4.28;77.82
74778;BME280;63298;53.164;8.610;2023-01-24T02:37:22;104152.44;;;4.30;77.48
74778;BME280;63298;53.164;8.610;2023-01-24T02:42:24;104157.69;;;4.33;77.37
74778;BME280;63298;53.164;8.610;2023-01-24T02:47:20;104165.75;;;4.34;77.46
74778;BME280;63298;53.164;8.610;2023-01-24T02:49:45;104159.31;;;4.35;77.84
74778;BME280;63298;53.164;8.610;2023-01-24T02:52:10;104160.19;;;4.36;77.58
74778;BME280;63298;53.164;8.610;2023-01-24T02:54:38;104158.56;;;4.33;77.17
74778;BME280;63298;53.164;8.610;2023-01-24T02:57:03;104164.03;;;4.33;77.14
74778;BME280;63298;53.164;8.610;2023-01-24T02:59:28;104162.38;;;4.31;76.75
74778;BME280;63298;53.164;8.610;2023-01-24T03:01:54;104163.38;;;4.30;77.08
74778;BME280;63298;53.164;8.610;2023-01-24T03:04:19;104143.50;;;4.28;76.87
74778;BME280;63298;53.164;8.610;2023-01-24T03:06:44;104157.91;;;4.30;76.88
74778;BME280;63298;53.164;8.610;2023-01-24T03:09:10;104158.78;;;4.30;77.22
74778;BME280;63298;53.164;8.610;2023-01-24T03:11:35;104166.00;;;4.31;77.23
74778;BME280;63298;53.164;8.610;2023-01-24T03:14:00;104154.19;;;4.31;76.68
74778;BME280;63298;53.164;8.610;2023-01-24T03:16:27;104158.69;;;4.32;76.99
74778;BME280;63298;53.164;8.610;2023-01-24T03:18:53;104158.56;;;4.33;77.04
74778;BME280;63298;53.164;8.610;2023-01-24T03:21:18;104157.44;;;4.36;77.20
74778;BME280;63298;53.164;8.610;2023-01-24T03:23:44;104159.44;;;4.34;76.66
74778;BME280;63298;53.164;8.610;2023-01-24T03:26:09;104157.78;;;4.31;76.28
74778;BME280;63298;53.164;8.610;2023-01-24T03:28:34;104159.66;;;4.31;76.61
74778;BME280;63298;53.164;8.610;2023-01-24T03:31:00;104149.69;;;4.30;76.67
74778;BME280;63298;53.164;8.610;2023-01-24T03:33:25;104158.78;;;4.30;76.18
74778;BME280;63298;53.164;8.610;2023-01-24T03:35:51;104158.03;;;4.28;76.16
74778;BME280;63298;53.164;8.610;2023-01-24T03:38:16;104159.13;;;4.26;76.13
74778;BME280;63298;53.164;8.610;2023-01-24T03:40:42;104166.34;;;4.27;76.20
74778;BME280;63298;53.164;8.610;2023-01-24T03:43:07;104159.38;;;4.23;75.85
74778;BME280;63298;53.164;8.610;2023-01-24T03:45:36;104162.97;;;4.23;76.07
74778;BME280;63298;53.164;8.610;2023-01-24T03:48:04;104161.22;;;4.22;75.89
74778;BME280;63298;53.164;8.610;2023-01-24T03:50:36;104167.41;;;4.24;76.24
74778;BME280;63298;53.164;8.610;2023-01-24T03:53:05;104169.41;;;4.22;75.82
74778;BME280;63298;53.164;8.610;2023-01-24T03:55:31;104163.06;;;4.22;75.86
74778;BME280;63298;53.164;8.610;2023-01-24T03:57:56;104167.56;;;4.23;75.93
74778;BME280;63298;53.164;8.610;2023-01-24T04:00:22;104173.91;;;4.23;75.73
74778;BME280;63298;53.164;8.610;2023-01-24T04:02:47;104178.50;;;4.23;76.65
74778;BME280;63298;53.164;8.610;2023-01-24T04:05:12;104174.78;;;4.24;75.52
74778;BME280;63298;53.164;8.610;2023-01-24T04:07:38;104172.16;;;4.22;75.64
74778;BME280;63298;53.164;8.610;2023-01-24T04:10:04;104185.72;;;4.24;75.84
74778;BME280;63298;53.164;8.610;2023-01-24T04:12:30;104178.50;;;4.23;75.97
74778;BME280;63298;53.164;8.610;2023-01-24T04:14:55;104179.56;;;4.20;75.90
74778;BME280;63298;53.164;8.610;2023-01-24T04:17:21;104181.31;;;4.21;75.94
74778;BME280;63298;53.164;8.610;2023-01-24T04:19:47;104181.44;;;4.20;75.92
74778;BME280;63298;53.164;8.610;2023-01-24T04:22:14;104184.06;;;4.21;76.16
74778;BME280;63298;53.164;8.610;2023-01-24T04:24:39;104190.06;;;4.26;76.12
74778;BME280;63298;53.164;8.610;2023-01-24T04:27:05;104188.53;;;4.22;75.46
74778;BME280;63298;53.164;8.610;2023-01-24T04:29:33;104186.88;;;4.20;75.91
74778;BME280;63298;53.164;8.610;2023-01-24T04:31:58;104179.91;;;4.16;75.66
74778;BME280;63298;53.164;8.610;2023-01-24T04:34:23;104183.75;;;4.13;74.90
74778;BME280;63298;53.164;8.610;2023-01-24T04:36:49;104177.31;;;4.14;75.63
74778;BME280;63298;53.164;8.610;2023-01-24T04:39:14;104184.84;;;4.11;75.27
74778;BME280;63298;53.164;8.610;2023-01-24T04:41:39;104178.75;;;4.07;75.04
74778;BME280;63298;53.164;8.610;2023-01-24T04:44:05;104185.81;;;4.10;75.47
74778;BME280;63298;53.164;8.610;2023-01-24T04:46:30;104183.97;;;4.10;75.44
74778;BME280;63298;53.164;8.610;2023-01-24T04:48:56;104181.13;;;4.12;75.64
74778;BME280;63298;53.164;8.610;2023-01-24T04:51:21;104181.13;;;4.12;75.53
74778;BME280;63298;53.164;8.610;2023-01-24T04:53:46;104180.91;;;4.15;75.12
74778;BME280;63298;53.164;8.610;2023-01-24T04:56:12;104179.16;;;4.14;75.71
74778;BME280;63298;53.164;8.610;2023-01-24T04:58:37;104177.41;;;4.13;74.97
74778;BME280;63298;53.164;8.610;2023-01-24T05:01:03;104180.91;;;4.15;75.14
74778;BME280;63298;53.164;8.610;2023-01-24T05:03:29;104180.91;;;4.15;75.00
74778;BME280;63298;53.164;8.610;2023-01-24T05:05:54;104179.91;;;4.16;75.58
74778;BME280;63298;53.164;8.610;2023-01-24T05:08:20;104172.84;;;4.13;74.92
74778;BME280;63298;53.164;8.610;2023-01-24T05:10:46;104171.84;;;4.14;75.04
74778;BME280;63298;53.164;8.610;2023-01-24T05:13:11;104168.25;;;4.14;75.28
74778;BME280;63298;53.164;8.610;2023-01-24T05:15:37;104169.13;;;4.14;75.18
74778;BME280;63298;53.164;8.610;2023-01-24T05:18:03;104166.50;;;4.13;75.06
74778;BME280;63298;53.164;8.610;2023-01-24T05:20:30;104169.97;;;4.15;75.16
74778;BME280;63298;53.164;8.610;2023-01-24T05:22:56;104161.91;;;4.13;75.17
74778;BME280;63298;53.164;8.610;2023-01-24T05:25:23;104177.19;;;4.16;75.41
74778;BME280;63298;53.164;8.610;2023-01-24T05:27:49;104174.69;;;4.13;75.23
74778;BME280;63298;53.164;8.610;2023-01-24T05:30:14;104172.94;;;4.12;75.32
74778;BME280;63298;53.164;8.610;2023-01-24T05:32:40;104180.16;;;4.13;75.06
74778;BME280;63298;53.164;8.610;2023-01-24T05:35:06;104173.91;;;4.11;74.60
74778;BME280;63298;53.164;8.610;2023-01-24T05:37:32;104176.66;;;4.11;75.49
74778;BME280;63298;53.164;8.610;2023-01-24T05:39:57;104181.13;;;4.12;75.29
74778;BME280;63298;53.164;8.610;2023-01-24T05:42:22;104180.34;;;4.10;75.05
74778;BME280;63298;53.164;8.610;2023-01-24T05:44:47;104185.06;;;4.08;75.06
74778;BME280;63298;53.164;8.610;2023-01-24T05:47:13;104188.56;;;4.10;75.39
74778;BME280;63298;53.164;8.610;2023-01-24T05:49:38;104184.97;;;4.09;74.96
74778;BME280;63298;53.164;8.610;2023-01-24T05:52:03;104177.63;;;4.10;75.07
74778;BME280;63298;53.164;8.610;2023-01-24T05:54:29;104187.56;;;4.11;75.11
74778;BME280;63298;53.164;8.610;2023-01-24T05:56:54;104185.81;;;4.10;75.23
74778;BME280;63298;53.164;8.610;2023-01-24T05:59:19;104186.59;;;4.12;75.20
74778;BME280;63298;53.164;8.610;2023-01-24T06:01:45;104192.94;;;4.12;75.21
74778;BME280;63298;53.164;8.610;2023-01-24T06:04:10;104192.06;;;4.12;74.73
74778;BME280;63298;53.164;8.610;2023-01-24T06:06:36;104178.63;;;4.09;75.09
74778;BME280;63298;53.164;8.610;2023-01-24T06:09:01;104188.69;;;4.08;74.66
74778;BME280;63298;53.164;8.610;2023-01-24T06:11:28;104190.53;;;4.08;74.90
74778;BME280;63298;53.164;8.610;2023-01-24T06:13:55;104198.72;;;4.08;74.71
74778;BME280;63298;53.164;8.610;2023-01-24T06:16:22;104194.00;;;4.10;74.79
74778;BME280;63298;53.164;8.610;2023-01-24T06:18:49;104185.50;;;4.02;74.89
74778;BME280;63298;53.164;8.610;2023-01-24T06:24:02;104192.72;;;4.03;74.97
74778;BME280;63298;53.164;8.610;2023-01-24T06:26:28;104188.34;;;4.00;75.04
74778;BME280;63298;53.164;8.610;2023-01-24T06:28:54;104193.63;;;4.03;75.23
74778;BME280;63298;53.164;8.610;2023-01-24T06:31:32;104198.19;;;4.03;74.75
74778;BME280;63298;53.164;8.610;2023-01-24T06:39:22;104191.22;;;3.99;74.98
74778;BME280;63298;53.164;8.610;2023-01-24T06:41:48;104200.28;;;3.99;75.08
74778;BME280;63298;53.164;8.610;2023-01-24T06:44:14;104202.13;;;3.99;74.71
74778;BME280;63298;53.164;8.610;2023-01-24T06:46:39;104199.28;;;4.00;74.73
74778;BME280;63298;53.164;8.610;2023-01-24T06:49:05;104199.59;;;3.96;74.78
74778;BME280;63298;53.164;8.610;2023-01-24T06:51:30;104198.88;;;3.94;74.75
74778;BME280;63298;53.164;8.610;2023-01-24T06:53:56;104202.13;;;3.99;74.92
74778;BME280;63298;53.164;8.610;2023-01-24T06:56:21;104207.47;;;4.00;74.81
74778;BME280;63298;53.164;8.610;2023-01-24T06:58:46;104204.63;;;4.02;74.58
74778;BME280;63298;53.164;8.610;2023-01-24T07:01:12;104206.50;;;4.01;74.98
74778;BME280;63298;53.164;8.610;2023-01-24T07:03:37;104218.28;;;4.02;75.10
74778;BME280;63298;53.164;8.610;2023-01-24T07:06:02;104210.44;;;3.97;74.68
74778;BME280;63298;53.164;8.610;2023-01-24T07:08:28;104217.41;;;4.01;75.23
74778;BME280;63298;53.164;8.610;2023-01-24T07:10:53;104228.13;;;4.04;75.01
74778;BME280;63298;53.164;8.610;2023-01-24T07:13:19;104216.34;;;4.04;74.96
74778;BME280;63298;53.164;8.610;2023-01-24T07:15:44;104222.78;;;4.03;75.19
74778;BME280;63298;53.164;8.610;2023-01-24T07:18:14;104225.50;;;4.03;74.75
74778;BME280;63298;53.164;8.610;2023-01-24T07:20:40;104224.00;;;3.99;74.99
74778;BME280;63298;53.164;8.610;2023-01-24T07:23:15;104222.97;;;4.00;75.23
74778;BME280;63298;53.164;8.610;2023-01-24T07:25:43;104231.94;;;4.02;75.01
74778;BME280;63298;53.164;8.610;2023-01-24T07:28:08;104232.94;;;4.01;75.17
74778;BME280;63298;53.164;8.610;2023-01-24T07:30:34;104241.91;;;4.03;74.90
74778;BME280;63298;53.164;8.610;2023-01-24T07:32:59;104232.81;;;4.02;74.95
74778;BME280;63298;53.164;8.610;2023-01-24T07:35:24;104240.03;;;4.03;75.00
74778;BME280;63298;53.164;8.610;2023-01-24T07:37:50;104242.97;;;4.00;75.04
74778;BME280;63298;53.164;8.610;2023-01-24T07:40:15;104246.72;;;3.99;74.73
74778;BME280;63298;53.164;8.610;2023-01-24T07:42:41;104242.56;;;3.94;74.70
74778;BME280;63298;53.164;8.610;2023-01-24T07:45:07;104254.03;;;3.99;75.00
74778;BME280;63298;53.164;8.610;2023-01-24T07:47:32;104251.50;;;3.96;75.10
74778;BME280;63298;53.164;8.610;2023-01-24T07:49:57;104258.81;;;3.95;74.56
74778;BME280;63298;53.164;8.610;2023-01-24T07:52:22;104255.25;;;3.95;74.83
74778;BME280;63298;53.164;8.610;2023-01-24T07:54:48;104265.94;;;3.98;74.86
74778;BME280;63298;53.164;8.610;2023-01-24T07:57:13;104257.28;;;3.91;74.24
74778;BME280;63298;53.164;8.610;2023-01-24T07:59:38;104256.22;;;3.94;75.17
74778;BME280;63298;53.164;8.610;2023-01-24T08:02:04;104256.97;;;3.96;75.12
74778;BME280;63298;53.164;8.610;2023-01-24T08:04:29;104255.09;;;3.96;74.99
74778;BME280;63298;53.164;8.610;2023-01-24T08:06:55;104245.94;;;3.97;74.44
74778;BME280;63298;53.164;8.610;2023-01-24T08:09:20;104243.53;;;3.92;74.67
74778;BME280;63298;53.164;8.610;2023-01-24T08:11:45;104251.72;;;3.92;75.31
74778;BME280;63298;53.164;8.610;2023-01-24T08:14:10;104252.72;;;3.91;75.12
74778;BME280;63298;53.164;8.610;2023-01-24T08:16:36;104251.84;;;3.91;74.71
74778;BME280;63298;53.164;8.610;2023-01-24T08:19:01;104260.03;;;3.91;75.12
74778;BME280;63298;53.164;8.610;2023-01-24T08:21:26;104250.84;;;3.92;75.32
74778;BME280;63298;53.164;8.610;2023-01-24T08:23:52;104260.03;;;3.91;75.18
74778;BME280;63298;53.164;8.610;2023-01-24T08:26:17;104258.28;;;3.90;74.81
74778;BME280;63298;53.164;8.610;2023-01-24T08:28:42;104267.47;;;3.89;74.73
74778;BME280;63298;53.164;8.610;2023-01-24T08:31:08;104269.31;;;3.88;75.07
74778;BME280;63298;53.164;8.610;2023-01-24T08:33:33;104270.19;;;3.89;75.10
74778;BME280;63298;53.164;8.610;2023-01-24T08:35:59;104263.88;;;3.88;75.18
74778;BME280;63298;53.164;8.610;2023-01-24T08:38:24;104265.50;;;3.91;74.70
74778;BME280;63298;53.164;8.610;2023-01-24T08:40:49;104271.94;;;3.90;75.39
74778;BME280;63298;53.164;8.610;2023-01-24T08:43:33;104274.56;;;3.91;75.13
74778;BME280;63298;53.164;8.610;2023-01-24T08:45:59;104290.84;;;3.93;75.09
74778;BME280;63298;53.164;8.610;2023-01-24T08:48:24;104282.63;;;3.80;74.37
74778;BME280;63298;53.164;8.610;2023-01-24T08:50:49;104286.91;;;3.84;74.89
74778;BME280;63298;53.164;8.610;2023-01-24T08:53:15;104299.56;;;3.85;75.21
74778;BME280;63298;53.164;8.610;2023-01-24T08:55:40;104294.97;;;3.86;75.06
74778;BME280;63298;53.164;8.610;2023-01-24T08:58:06;104307.66;;;3.87;74.53
74778;BME280;63298;53.164;8.610;2023-01-24T09:00:31;104303.31;;;3.84;74.67
74778;BME280;63298;53.164;8.610;2023-01-24T09:02:57;104298.81;;;3.83;74.83
74778;BME280;63298;53.164;8.610;2023-01-24T09:05:23;104302.28;;;3.85;75.24
74778;BME280;63298;53.164;8.610;2023-01-24T09:07:48;104295.84;;;3.86;74.86
74778;BME280;63298;53.164;8.610;2023-01-24T09:10:14;104305.03;;;3.85;75.01
74778;BME280;63298;53.164;8.610;2023-01-24T09:12:39;104306.22;;;3.81;74.49
74778;BME280;63298;53.164;8.610;2023-01-24T09:15:05;104293.44;;;3.82;74.69
74778;BME280;63298;53.164;8.610;2023-01-24T09:17:30;104297.06;;;3.82;75.06
74778;BME280;63298;53.164;8.610;2023-01-24T09:19:55;104290.63;;;3.83;74.88
74778;BME280;63298;53.164;8.610;2023-01-24T09:22:21;104297.84;;;3.84;74.72
74778;BME280;63298;53.164;8.610;2023-01-24T09:24:46;104297.84;;;3.84;74.76
74778;BME280;63298;53.164;8.610;2023-01-24T09:27:11;104296.84;;;3.85;75.01
74778;BME280;63298;53.164;8.610;2023-01-24T09:29:37;104286.78;;;3.86;74.97
74778;BME280;63298;53.164;8.610;2023-01-24T09:32:02;104290.19;;;3.89;75.01
74778;BME280;63298;53.164;8.610;2023-01-24T09:34:27;104293.13;;;3.86;75.15
74778;BME280;63298;53.164;8.610;2023-01-24T09:36:53;104296.63;;;3.88;74.68
74778;BME280;63298;53.164;8.610;2023-01-24T09:39:18;104295.66;;;3.89;74.93
74778;BME280;63298;53.164;8.610;2023-01-24T09:42:03;104297.59;;;3.87;74.49
74778;BME280;63298;53.164;8.610;2023-01-24T09:44:39;104304.81;;;3.88;74.75
74778;BME280;63298;53.164;8.610;2023-01-24T09:47:15;104296.63;;;3.88;74.88
74778;BME280;63298;53.164;8.610;2023-01-24T09:49:48;104294.31;;;3.95;74.65
74778;BME280;63298;53.164;8.610;2023-01-24T09:52:23;104299.91;;;3.94;74.90
74778;BME280;63298;53.164;8.610;2023-01-24T09:58:04;104293.69;;;3.91;74.16
74778;BME280;63298;53.164;8.610;2023-01-24T10:00:37;104296.63;;;3.88;74.61
74778;BME280;63298;53.164;8.610;2023-01-24T10:03:12;104287.13;;;3.81;74.23
74778;BME280;63298;53.164;8.610;2023-01-24T10:05:39;104295.09;;;3.84;73.46
74778;BME280;63298;53.164;8.610;2023-01-24T10:08:36;104295.09;;;3.84;74.50
74778;BME280;63298;53.164;8.610;2023-01-24T10:19:32;104285.59;;;3.90;74.25
74778;BME280;63298;53.164;8.610;2023-01-24T10:24:54;104279.91;;;3.93;74.28
74778;BME280;63298;53.164;8.610;2023-01-24T10:27:28;104279.81;;;3.95;74.26
74778;BME280;63298;53.164;8.610;2023-01-24T10:29:59;104267.69;;;3.99;74.27
74778;BME280;63298;53.164;8.610;2023-01-24T10:32:34;104268.56;;;3.99;74.03
74778;BME280;63298;53.164;8.610;2023-01-24T10:35:23;104265.59;;;4.02;74.42
74778;BME280;63298;53.164;8.610;2023-01-24T10:37:53;104259.03;;;4.05;74.34
74778;BME280;63298;53.164;8.610;2023-01-24T10:40:21;104254.44;;;4.05;74.50
74778;BME280;63298;53.164;8.610;2023-01-24T10:42:47;104256.97;;;4.08;74.63
74778;BME280;63298;53.164;8.610;2023-01-24T10:48:05;104250.84;;;4.05;74.30
74778;BME280;63298;53.164;8.610;2023-01-24T10:50:42;104256.19;;;4.06;74.52
74778;BME280;63298;53.164;8.610;2023-01-24T10:55:48;104254.34;;;4.07;74.14
74778;BME280;63298;53.164;8.610;2023-01-24T10:59:34;104253.69;;;4.03;73.88
74778;BME280;63298;53.164;8.610;2023-01-24T11:01:24;104237.75;;;3.97;74.26
74778;BME280;63298;53.164;8.610;2023-01-24T11:03:56;104250.09;;;4.03;74.50
74778;BME280;63298;53.164;8.610;2023-01-24T11:06:44;104253.03;;;4.00;74.39
74778;BME280;63298;53.164;8.610;2023-01-24T11:09:11;104247.78;;;3.97;74.24
74778;BME280;63298;53.164;8.610;2023-01-24T11:11:54;104248.91;;;3.94;73.78
74778;BME280;63298;53.164;8.610;2023-01-24T11:14:38;104249.00;;;3.92;73.31
74778;BME280;63298;53.164;8.610;2023-01-24T11:17:03;104249.97;;;3.91;73.77
74778;BME280;63298;53.164;8.610;2023-01-24T11:19:43;104253.69;;;3.90;73.96
74778;BME280;63298;53.164;8.610;2023-01-24T11:22:26;104248.47;;;3.87;73.51
74778;BME280;63298;53.164;8.610;2023-01-24T11:25:00;104240.16;;;3.89;74.37
74778;BME280;63298;53.164;8.610;2023-01-24T11:27:26;104245.28;;;3.94;73.91
74778;BME280;63298;53.164;8.610;2023-01-24T11:30:19;104246.50;;;3.89;73.64
74778;BME280;63298;53.164;8.610;2023-01-24T11:35:42;104241.69;;;3.93;73.94
74778;BME280;63298;53.164;8.610;2023-01-24T11:38:35;104237.19;;;3.92;73.51
74778;BME280;63298;53.164;8.610;2023-01-24T11:46:25;104238.72;;;3.96;74.33
74778;BME280;63298;53.164;8.610;2023-01-24T11:49:15;104238.38;;;4.01;73.77
74778;BME280;63298;53.164;8.610;2023-01-24T11:51:57;104237.41;;;4.02;73.98
74778;BME280;63298;53.164;8.610;2023-01-24T11:57:01;104230.44;;;3.98;73.86
74778;BME280;63298;53.164;8.610;2023-01-24T12:13:05;104222.00;;;4.01;73.83
74778;BME280;63298;53.164;8.610;2023-01-24T12:19:04;104205.84;;;3.98;73.45
74778;BME280;63298;53.164;8.610;2023-01-24T12:21:35;104211.53;;;3.95;73.85
74778;BME280;63298;53.164;8.610;2023-01-24T12:24:06;104193.41;;;3.94;73.66
74778;BME280;63298;53.164;8.610;2023-01-24T12:26:43;104192.53;;;3.93;73.30
74778;BME280;63298;53.164;8.610;2023-01-24T12:29:20;104201.47;;;3.95;73.81
74778;BME280;63298;53.164;8.610;2023-01-24T12:32:07;104198.41;;;4.00;73.55
74778;BME280;63298;53.164;8.610;2023-01-24T12:34:50;104201.91;;;4.02;73.67
74778;BME280;63298;53.164;8.610;2023-01-24T12:42:33;104189.22;;;4.01;73.69
74778;BME280;63298;53.164;8.610;2023-01-24T12:45:05;104184.53;;;4.03;73.91
74778;BME280;63298;53.164;8.610;2023-01-24T12:53:16;104189.22;;;4.01;73.81
74778;BME280;63298;53.164;8.610;2023-01-24T12:56:12;104192.72;;;4.03;73.72
74778;BME280;63298;53.164;8.610;2023-01-24T12:58:40;104190.00;;;4.03;74.09
74778;BME280;63298;53.164;8.610;2023-01-24T13:09:24;104179.22;;;3.88;73.51
74778;BME280;63298;53.164;8.610;2023-01-24T13:11:54;104182.13;;;3.85;73.21
74778;BME280;63298;53.164;8.610;2023-01-24T13:20:11;104171.56;;;3.81;73.84
74778;BME280;63298;53.164;8.610;2023-01-24T13:34:04;104172.44;;;3.69;73.09
74778;BME280;63298;53.164;8.610;2023-01-24T13:36:36;104172.44;;;3.69;74.02
74778;BME280;63298;53.164;8.610;2023-01-24T13:39:04;104165.00;;;3.71;73.96
74778;BME280;63298;53.164;8.610;2023-01-24T13:49:18;104162.19;;;3.60;74.18
74778;BME280;63298;53.164;8.610;2023-01-24T13:51:56;104157.28;;;3.65;73.88
74778;BME280;63298;53.164;8.610;2023-01-24T13:54:41;104156.06;;;3.69;73.85
74778;BME280;63298;53.164;8.610;2023-01-24T14:04:51;104150.38;;;3.72;73.92
74778;BME280;63298;53.164;8.610;2023-01-24T14:07:18;104149.31;;;3.74;74.03
74778;BME280;63298;53.164;8.610;2023-01-24T14:09:45;104144.03;;;3.71;74.15
74778;BME280;63298;53.164;8.610;2023-01-24T14:12:16;104156.50;;;3.75;73.58
74778;BME280;63298;53.164;8.610;2023-01-24T14:17:28;104155.66;;;3.75;73.90
74778;BME280;63298;53.164;8.610;2023-01-24T14:19:55;104161.09;;;3.75;74.11
74778;BME280;63298;53.164;8.610;2023-01-24T14:22:27;104161.84;;;3.77;73.65
74778;BME280;63298;53.164;8.610;2023-01-24T14:25:02;104164.47;;;3.78;73.82
74778;BME280;63298;53.164;8.610;2023-01-24T14:27:48;104157.25;;;3.77;73.66
74778;BME280;63298;53.164;8.610;2023-01-24T14:32:50;104162.63;;;3.79;73.79
74778;BME280;63298;53.164;8.610;2023-01-24T14:37:41;104148.28;;;3.75;73.69
74778;BME280;63298;53.164;8.610;2023-01-24T14:42:41;104147.22;;;3.78;73.85
74778;BME280;63298;53.164;8.610;2023-01-24T14:45:12;104138.25;;;3.76;73.71
74778;BME280;63298;53.164;8.610;2023-01-24T14:47:39;104147.31;;;3.76;74.04
74778;BME280;63298;53.164;8.610;2023-01-24T14:50:26;104161.09;;;3.75;73.64
74778;BME280;63298;53.164;8.610;2023-01-24T14:52:52;104154.00;;;3.72;74.22
74778;BME280;63298;53.164;8.610;2023-01-24T14:57:42;104158.81;;;3.69;74.06
74778;BME280;63298;53.164;8.610;2023-01-24T15:02:39;104157.81;;;3.70;74.29
74778;BME280;63298;53.164;8.610;2023-01-24T15:05:29;104157.16;;;3.66;73.82
74778;BME280;63298;53.164;8.610;2023-01-24T15:07:56;104155.31;;;3.67;74.16
74778;BME280;63298;53.164;8.610;2023-01-24T15:12:51;104154.00;;;3.60;73.93
74778;BME280;63298;53.164;8.610;2023-01-24T15:15:18;104151.38;;;3.58;73.94
74778;BME280;63298;53.164;8.610;2023-01-24T15:17:45;104149.63;;;3.57;74.46
74778;BME280;63298;53.164;8.610;2023-01-24T15:20:19;104158.94;;;3.55;74.14
74778;BME280;63298;53.164;8.610;2023-01-24T15:22:51;104152.59;;;3.54;74.33